sensor_id;sensor_type;location;lat;lon;timestamp;temperature;humidity
2721;DHT22;1368;49.484;11.112;2024-02-21T00:01:35;9.90;99.90
2721;DHT22;1368;49.484;11.112;2024-02-21T00:04:01;9.90;99.90
2721;DHT22;1368;49.484;11.112;2024-02-21T00:06:27;10.10;99.90
2721;DHT22;1368;49.484;11.112;2024-02-21T00:08:52;10.00;99.90
2721;DHT22;1368;49.484;11.112;2024-02-21T00:11:18;10.00;99.90
2721;DHT22;1368;49.484;11.112;2024-02-21T00:13:43;10.00;99.90
2721;DHT22;1368;49.484;11.112;2024-02-21T00:16:09;10.00;99.90
2721;DHT22;1368;49.484;11.112;2024-02-21T00:18:36;10.00;99.90
2721;DHT22;1368;49.484;11.112;2024-02-21T00:21:01;10.00;99.90
2721;DHT22;1368;49.484;11.112;2024-02-21T00:23:27;10.00;99.90
2721;DHT22;1368;49.484;11.112;2024-02-21T00:25:54;10.00;99.90
2721;DHT22;1368;49.484;11.112;2024-02-21T00:28:19;10.10;99.90
2721;DHT22;1368;49.484;11.112;2024-02-21T00:30:45;10.10;99.90
2721;DHT22;1368;49.484;11.112;2024-02-21T00:33:13;10.10;99.90
2721;DHT22;1368;49.484;11.112;2024-02-21T00:35:39;10.10;99.90
2721;DHT22;1368;49.484;11.112;2024-02-21T00:38:04;10.10;99.90
2721;DHT22;1368;49.484;11.112;2024-02-21T00:40:30;10.00;99.90
2721;DHT22;1368;49.484;11.112;2024-02-21T00:42:55;10.10;99.90
2721;DHT22;1368;49.484;11.112;2024-02-21T00:45:21;10.10;99.90
2721;DHT22;1368;49.484;11.112;2024-02-21T00:47:47;10.10;99.90
2721;DHT22;1368;49.484;11.112;2024-02-21T00:50:12;9.90;99.90
2721;DHT22;1368;49.484;11.112;2024-02-21T00:52:38;9.80;99.90
2721;DHT22;1368;49.484;11.112;2024-02-21T00:55:04;9.70;99.90
2721;DHT22;1368;49.484;11.112;2024-02-21T00:57:30;9.70;99.90
2721;DHT22;1368;49.484;11.112;2024-02-21T00:59:56;9.60;99.90
2721;DHT22;1368;49.484;11.112;2024-02-21T01:02:21;9.50;99.90
2721;DHT22;1368;49.484;11.112;2024-02-21T01:04:47;9.10;99.90
2721;DHT22;1368;49.484;11.112;2024-02-21T01:07:12;9.20;99.90
2721;DHT22;1368;49.484;11.112;2024-02-21T01:09:38;9.30;99.90
2721;DHT22;1368;49.484;11.112;2024-02-21T01:12:04;9.40;99.90
2721;DHT22;1368;49.484;11.112;2024-02-21T01:14:29;9.50;99.90
2721;DHT22;1368;49.484;11.112;2024-02-21T01:16:55;9.50;99.90
2721;DHT22;1368;49.484;11.112;2024-02-21T01:19:20;9.20;99.90
2721;DHT22;1368;49.484;11.112;2024-02-21T01:21:46;9.50;99.90
2721;DHT22;1368;49.484;11.112;2024-02-21T01:24:11;9.20;99.90
2721;DHT22;1368;49.484;11.112;2024-02-21T01:26:37;9.30;99.90
2721;DHT22;1368;49.484;11.112;2024-02-21T01:29:02;9.10;99.90
2721;DHT22;1368;49.484;11.112;2024-02-21T01:31:28;8.70;99.90
2721;DHT22;1368;49.484;11.112;2024-02-21T01:33:53;8.60;99.90
2721;DHT22;1368;49.484;11.112;2024-02-21T01:36:19;8.80;99.90
2721;DHT22;1368;49.484;11.112;2024-02-21T01:38:44;12.60;99.90
2721;DHT22;1368;49.484;11.112;2024-02-21T01:41:10;9.20;99.90
2721;DHT22;1368;49.484;11.112;2024-02-21T01:43:36;9.10;99.90
2721;DHT22;1368;49.484;11.112;2024-02-21T01:46:01;9.20;99.90
2721;DHT22;1368;49.484;11.112;2024-02-21T01:48:27;9.20;99.90
2721;DHT22;1368;49.484;11.112;2024-02-21T01:50:54;9.40;99.90
2721;DHT22;1368;49.484;11.112;2024-02-21T01:53:23;9.60;99.90
2721;DHT22;1368;49.484;11.112;2024-02-21T01:55:50;9.20;99.90
2721;DHT22;1368;49.484;11.112;2024-02-21T01:58:16;8.90;99.90
2721;DHT22;1368;49.484;11.112;2024-02-21T02:00:43;9.40;99.90
2721;DHT22;1368;49.484;11.112;2024-02-21T02:03:10;9.00;99.90
2721;DHT22;1368;49.484;11.112;2024-02-21T02:05:51;8.90;99.90
2721;DHT22;1368;49.484;11.112;2024-02-21T02:08:18;9.10;99.90
2721;DHT22;1368;49.484;11.112;2024-02-21T02:10:45;9.20;99.90
2721;DHT22;1368;49.484;11.112;2024-02-21T02:13:14;9.30;99.90
2721;DHT22;1368;49.484;11.112;2024-02-21T02:15:41;9.50;99.90
2721;DHT22;1368;49.484;11.112;2024-02-21T02:18:07;9.40;99.90
2721;DHT22;1368;49.484;11.112;2024-02-21T02:20:32;9.90;99.90
2721;DHT22;1368;49.484;11.112;2024-02-21T02:22:59;9.30;99.90
2721;DHT22;1368;49.484;11.112;2024-02-21T02:25:26;9.50;99.90
2721;DHT22;1368;49.484;11.112;2024-02-21T02:27:51;9.50;99.90
2721;DHT22;1368;49.484;11.112;2024-02-21T02:30:17;9.50;99.90
2721;DHT22;1368;49.484;11.112;2024-02-21T02:32:45;9.50;99.90
2721;DHT22;1368;49.484;11.112;2024-02-21T02:35:11;9.60;99.90
2721;DHT22;1368;49.484;11.112;2024-02-21T02:37:37;9.60;99.90
2721;DHT22;1368;49.484;11.112;2024-02-21T02:40:05;9.60;99.90
2721;DHT22;1368;49.484;11.112;2024-02-21T02:42:31;9.60;99.90
2721;DHT22;1368;49.484;11.112;2024-02-21T02:44:57;9.70;99.90
2721;DHT22;1368;49.484;11.112;2024-02-21T02:47:23;9.70;99.90
2721;DHT22;1368;49.484;11.112;2024-02-21T02:49:48;9.50;99.90
2721;DHT22;1368;49.484;11.112;2024-02-21T02:52:16;9.60;99.90
2721;DHT22;1368;49.484;11.112;2024-02-21T02:54:42;9.60;99.90
2721;DHT22;1368;49.484;11.112;2024-02-21T02:57:08;9.70;99.90
2721;DHT22;1368;49.484;11.112;2024-02-21T02:59:33;9.70;99.90
2721;DHT22;1368;49.484;11.112;2024-02-21T03:01:59;9.70;99.90
2721;DHT22;1368;49.484;11.112;2024-02-21T03:04:24;9.60;99.90
2721;DHT22;1368;49.484;11.112;2024-02-21T03:06:50;9.50;99.90
2721;DHT22;1368;49.484;11.112;2024-02-21T03:09:16;9.40;99.90
2721;DHT22;1368;49.484;11.112;2024-02-21T03:11:43;9.40;99.90
2721;DHT22;1368;49.484;11.112;2024-02-21T03:14:10;9.40;99.90
2721;DHT22;1368;49.484;11.112;2024-02-21T03:16:35;9.40;99.90
2721;DHT22;1368;49.484;11.112;2024-02-21T03:19:01;9.50;99.90
2721;DHT22;1368;49.484;11.112;2024-02-21T03:21:27;9.40;99.90
2721;DHT22;1368;49.484;11.112;2024-02-21T03:23:52;9.50;99.90
2721;DHT22;1368;49.484;11.112;2024-02-21T03:26:18;9.50;99.90
2721;DHT22;1368;49.484;11.112;2024-02-21T03:28:44;9.60;99.90
2721;DHT22;1368;49.484;11.112;2024-02-21T03:31:13;9.70;99.90
2721;DHT22;1368;49.484;11.112;2024-02-21T03:33:41;9.70;99.90
2721;DHT22;1368;49.484;11.112;2024-02-21T03:36:13;9.70;99.90
2721;DHT22;1368;49.484;11.112;2024-02-21T03:38:39;9.70;99.90
2721;DHT22;1368;49.484;11.112;2024-02-21T03:41:05;9.70;99.90
2721;DHT22;1368;49.484;11.112;2024-02-21T03:43:31;9.80;99.90
2721;DHT22;1368;49.484;11.112;2024-02-21T03:45:56;9.80;99.90
2721;DHT22;1368;49.484;11.112;2024-02-21T03:48:22;9.70;99.90
2721;DHT22;1368;49.484;11.112;2024-02-21T03:50:47;9.70;99.90
2721;DHT22;1368;49.484;11.112;2024-02-21T03:53:13;9.80;99.90
2721;DHT22;1368;49.484;11.112;2024-02-21T03:55:39;9.80;99.90
2721;DHT22;1368;49.484;11.112;2024-02-21T03:58:04;9.90;99.90
2721;DHT22;1368;49.484;11.112;2024-02-21T04:00:30;9.90;99.90
2721;DHT22;1368;49.484;11.112;2024-02-21T04:02:55;9.90;99.90
2721;DHT22;1368;49.484;11.112;2024-02-21T04:05:21;9.80;99.90
2721;DHT22;1368;49.484;11.112;2024-02-21T04:07:47;9.60;99.90
2721;DHT22;1368;49.484;11.112;2024-02-21T04:10:12;9.60;99.90
2721;DHT22;1368;49.484;11.112;2024-02-21T04:12:38;9.90;99.90
2721;DHT22;1368;49.484;11.112;2024-02-21T04:15:04;9.70;99.90
2721;DHT22;1368;49.484;11.112;2024-02-21T04:17:30;9.80;99.90
2721;DHT22;1368;49.484;11.112;2024-02-21T04:20:05;9.70;99.90
2721;DHT22;1368;49.484;11.112;2024-02-21T04:22:31;9.60;99.90
2721;DHT22;1368;49.484;11.112;2024-02-21T04:24:59;9.80;99.90
2721;DHT22;1368;49.484;11.112;2024-02-21T04:27:25;9.60;99.90
2721;DHT22;1368;49.484;11.112;2024-02-21T04:29:51;9.70;99.90
2721;DHT22;1368;49.484;11.112;2024-02-21T04:32:17;9.80;99.90
2721;DHT22;1368;49.484;11.112;2024-02-21T04:34:42;9.90;99.90
2721;DHT22;1368;49.484;11.112;2024-02-21T04:37:08;9.90;99.90
2721;DHT22;1368;49.484;11.112;2024-02-21T04:39:33;9.60;99.90
2721;DHT22;1368;49.484;11.112;2024-02-21T04:41:59;9.60;99.90
2721;DHT22;1368;49.484;11.112;2024-02-21T04:44:25;9.70;99.90
2721;DHT22;1368;49.484;11.112;2024-02-21T04:46:50;9.70;99.90
2721;DHT22;1368;49.484;11.112;2024-02-21T04:49:16;9.70;99.90
2721;DHT22;1368;49.484;11.112;2024-02-21T04:51:42;9.60;99.90
2721;DHT22;1368;49.484;11.112;2024-02-21T04:54:07;9.60;99.90
2721;DHT22;1368;49.484;11.112;2024-02-21T04:56:33;9.40;99.90
2721;DHT22;1368;49.484;11.112;2024-02-21T04:58:59;9.40;99.90
2721;DHT22;1368;49.484;11.112;2024-02-21T05:01:25;9.40;99.90
2721;DHT22;1368;49.484;11.112;2024-02-21T05:03:50;9.50;99.90
2721;DHT22;1368;49.484;11.112;2024-02-21T05:06:16;9.60;99.90
2721;DHT22;1368;49.484;11.112;2024-02-21T05:08:42;9.70;99.90
2721;DHT22;1368;49.484;11.112;2024-02-21T05:11:07;9.70;99.90
2721;DHT22;1368;49.484;11.112;2024-02-21T05:13:33;9.60;99.90
2721;DHT22;1368;49.484;11.112;2024-02-21T05:15:58;9.70;99.90
2721;DHT22;1368;49.484;11.112;2024-02-21T05:18:27;9.70;99.90
2721;DHT22;1368;49.484;11.112;2024-02-21T05:20:53;9.70;99.90
2721;DHT22;1368;49.484;11.112;2024-02-21T05:23:19;9.60;99.90
2721;DHT22;1368;49.484;11.112;2024-02-21T05:25:44;9.60;99.90
2721;DHT22;1368;49.484;11.112;2024-02-21T05:28:10;9.60;99.90
2721;DHT22;1368;49.484;11.112;2024-02-21T05:30:35;9.50;99.90
2721;DHT22;1368;49.484;11.112;2024-02-21T05:33:07;9.30;99.90
2721;DHT22;1368;49.484;11.112;2024-02-21T05:35:34;9.20;99.90
2721;DHT22;1368;49.484;11.112;2024-02-21T05:37:59;9.20;99.90
2721;DHT22;1368;49.484;11.112;2024-02-21T05:40:25;9.20;99.90
2721;DHT22;1368;49.484;11.112;2024-02-21T05:42:51;9.10;99.90
2721;DHT22;1368;49.484;11.112;2024-02-21T05:45:17;9.10;99.90
2721;DHT22;1368;49.484;11.112;2024-02-21T05:47:43;9.00;99.90
2721;DHT22;1368;49.484;11.112;2024-02-21T05:50:09;9.00;99.90
2721;DHT22;1368;49.484;11.112;2024-02-21T05:52:35;9.00;99.90
2721;DHT22;1368;49.484;11.112;2024-02-21T05:55:01;9.00;99.90
2721;DHT22;1368;49.484;11.112;2024-02-21T05:57:26;9.00;99.90
2721;DHT22;1368;49.484;11.112;2024-02-21T05:59:52;9.00;99.90
2721;DHT22;1368;49.484;11.112;2024-02-21T06:02:17;8.90;99.90
2721;DHT22;1368;49.484;11.112;2024-02-21T06:04:43;8.90;99.90
2721;DHT22;1368;49.484;11.112;2024-02-21T06:07:09;8.80;99.90
2721;DHT22;1368;49.484;11.112;2024-02-21T06:09:35;8.70;99.90
2721;DHT22;1368;49.484;11.112;2024-02-21T06:12:01;8.60;99.90
2721;DHT22;1368;49.484;11.112;2024-02-21T06:14:26;8.60;99.90
2721;DHT22;1368;49.484;11.112;2024-02-21T06:16:52;8.60;99.90
2721;DHT22;1368;49.484;11.112;2024-02-21T06:19:17;8.50;99.90
2721;DHT22;1368;49.484;11.112;2024-02-21T06:21:43;8.50;99.90
2721;DHT22;1368;49.484;11.112;2024-02-21T06:24:08;8.50;99.90
2721;DHT22;1368;49.484;11.112;2024-02-21T06:26:34;8.50;99.90
2721;DHT22;1368;49.484;11.112;2024-02-21T06:29:00;8.40;99.90
2721;DHT22;1368;49.484;11.112;2024-02-21T06:31:27;8.40;99.90
2721;DHT22;1368;49.484;11.112;2024-02-21T06:33:53;8.30;99.90
2721;DHT22;1368;49.484;11.112;2024-02-21T06:36:18;8.30;99.90
2721;DHT22;1368;49.484;11.112;2024-02-21T06:38:44;8.30;99.90
2721;DHT22;1368;49.484;11.112;2024-02-21T06:41:16;8.30;99.90
2721;DHT22;1368;49.484;11.112;2024-02-21T06:43:44;8.30;99.90
2721;DHT22;1368;49.484;11.112;2024-02-21T06:46:10;8.50;99.90
2721;DHT22;1368;49.484;11.112;2024-02-21T06:48:35;8.70;99.90
2721;DHT22;1368;49.484;11.112;2024-02-21T06:51:01;8.60;99.90
2721;DHT22;1368;49.484;11.112;2024-02-21T06:53:27;8.80;99.90
2721;DHT22;1368;49.484;11.112;2024-02-21T06:55:52;9.00;99.90
2721;DHT22;1368;49.484;11.112;2024-02-21T06:58:18;9.10;99.90
2721;DHT22;1368;49.484;11.112;2024-02-21T07:00:44;9.20;99.90
2721;DHT22;1368;49.484;11.112;2024-02-21T07:03:09;9.30;99.90
2721;DHT22;1368;49.484;11.112;2024-02-21T07:05:35;9.30;99.90
2721;DHT22;1368;49.484;11.112;2024-02-21T07:08:00;9.40;99.90
2721;DHT22;1368;49.484;11.112;2024-02-21T07:10:26;9.50;99.90
2721;DHT22;1368;49.484;11.112;2024-02-21T07:12:54;9.60;99.90
2721;DHT22;1368;49.484;11.112;2024-02-21T07:15:20;9.80;99.90
2721;DHT22;1368;49.484;11.112;2024-02-21T07:17:46;10.20;99.90
2721;DHT22;1368;49.484;11.112;2024-02-21T07:20:11;10.60;99.90
2721;DHT22;1368;49.484;11.112;2024-02-21T07:22:37;11.40;99.90
2721;DHT22;1368;49.484;11.112;2024-02-21T07:25:03;11.80;99.90
2721;DHT22;1368;49.484;11.112;2024-02-21T07:27:29;12.30;99.90
2721;DHT22;1368;49.484;11.112;2024-02-21T07:29:56;12.50;99.90
2721;DHT22;1368;49.484;11.112;2024-02-21T07:32:22;12.90;99.90
2721;DHT22;1368;49.484;11.112;2024-02-21T07:34:48;13.50;99.90
2721;DHT22;1368;49.484;11.112;2024-02-21T07:37:13;13.60;99.90
2721;DHT22;1368;49.484;11.112;2024-02-21T07:39:39;14.40;99.90
2721;DHT22;1368;49.484;11.112;2024-02-21T07:42:04;14.60;99.90
2721;DHT22;1368;49.484;11.112;2024-02-21T07:44:31;15.00;99.90
2721;DHT22;1368;49.484;11.112;2024-02-21T07:46:57;16.20;99.90
2721;DHT22;1368;49.484;11.112;2024-02-21T07:49:23;16.70;99.90
2721;DHT22;1368;49.484;11.112;2024-02-21T07:51:49;16.80;99.90
2721;DHT22;1368;49.484;11.112;2024-02-21T07:54:14;17.50;99.90
2721;DHT22;1368;49.484;11.112;2024-02-21T07:56:40;17.70;99.90
2721;DHT22;1368;49.484;11.112;2024-02-21T07:59:05;17.00;99.60
2721;DHT22;1368;49.484;11.112;2024-02-21T08:01:31;16.70;99.90
2721;DHT22;1368;49.484;11.112;2024-02-21T08:03:56;17.00;99.90
2721;DHT22;1368;49.484;11.112;2024-02-21T08:06:22;17.30;99.90
2721;DHT22;1368;49.484;11.112;2024-02-21T08:08:47;16.40;99.60
2721;DHT22;1368;49.484;11.112;2024-02-21T08:11:13;15.60;99.90
2721;DHT22;1368;49.484;11.112;2024-02-21T08:13:39;15.00;99.90
2721;DHT22;1368;49.484;11.112;2024-02-21T08:16:05;14.60;99.90
2721;DHT22;1368;49.484;11.112;2024-02-21T08:18:30;14.80;99.90
2721;DHT22;1368;49.484;11.112;2024-02-21T08:20:56;14.80;99.90
2721;DHT22;1368;49.484;11.112;2024-02-21T08:23:23;14.70;99.90
2721;DHT22;1368;49.484;11.112;2024-02-21T08:25:49;15.00;99.90
2721;DHT22;1368;49.484;11.112;2024-02-21T08:28:15;15.20;99.90
2721;DHT22;1368;49.484;11.112;2024-02-21T08:30:40;15.80;99.90
2721;DHT22;1368;49.484;11.112;2024-02-21T08:33:09;15.90;99.90
2721;DHT22;1368;49.484;11.112;2024-02-21T08:35:35;16.40;99.90
2721;DHT22;1368;49.484;11.112;2024-02-21T08:38:00;16.90;99.90
2721;DHT22;1368;49.484;11.112;2024-02-21T08:40:26;17.40;99.90
2721;DHT22;1368;49.484;11.112;2024-02-21T08:42:51;17.60;98.80
2721;DHT22;1368;49.484;11.112;2024-02-21T08:45:19;17.80;98.20
2721;DHT22;1368;49.484;11.112;2024-02-21T08:47:44;18.10;98.20
2721;DHT22;1368;49.484;11.112;2024-02-21T08:50:10;17.90;97.90
2721;DHT22;1368;49.484;11.112;2024-02-21T08:52:36;17.90;98.50
2721;DHT22;1368;49.484;11.112;2024-02-21T08:55:02;17.80;97.30
2721;DHT22;1368;49.484;11.112;2024-02-21T08:57:27;17.10;97.00
2721;DHT22;1368;49.484;11.112;2024-02-21T08:59:53;15.90;98.90
2721;DHT22;1368;49.484;11.112;2024-02-21T09:02:19;15.70;99.90
2721;DHT22;1368;49.484;11.112;2024-02-21T09:04:44;15.60;99.80
2721;DHT22;1368;49.484;11.112;2024-02-21T09:07:10;15.90;99.90
2721;DHT22;1368;49.484;11.112;2024-02-21T09:09:36;15.50;99.80
2721;DHT22;1368;49.484;11.112;2024-02-21T09:12:05;15.60;99.90
2721;DHT22;1368;49.484;11.112;2024-02-21T09:14:34;15.50;98.80
2721;DHT22;1368;49.484;11.112;2024-02-21T09:16:59;14.90;99.90
2721;DHT22;1368;49.484;11.112;2024-02-21T09:19:25;15.20;99.90
2721;DHT22;1368;49.484;11.112;2024-02-21T09:21:51;15.40;99.90
2721;DHT22;1368;49.484;11.112;2024-02-21T09:24:17;15.80;99.90
2721;DHT22;1368;49.484;11.112;2024-02-21T09:26:43;16.10;98.90
2721;DHT22;1368;49.484;11.112;2024-02-21T09:29:08;16.20;99.20
2721;DHT22;1368;49.484;11.112;2024-02-21T09:31:34;16.60;99.90
2721;DHT22;1368;49.484;11.112;2024-02-21T09:34:00;16.60;99.90
2721;DHT22;1368;49.484;11.112;2024-02-21T09:36:25;17.20;98.60
2721;DHT22;1368;49.484;11.112;2024-02-21T09:38:51;17.50;97.90
2721;DHT22;1368;49.484;11.112;2024-02-21T09:41:17;17.50;97.60
2721;DHT22;1368;49.484;11.112;2024-02-21T09:43:44;17.50;97.00
2721;DHT22;1368;49.484;11.112;2024-02-21T09:46:18;17.40;98.10
2721;DHT22;1368;49.484;11.112;2024-02-21T09:51:55;17.10;97.30
2721;DHT22;1368;49.484;11.112;2024-02-21T09:54:22;17.60;98.60
2721;DHT22;1368;49.484;11.112;2024-02-21T09:56:48;17.20;96.60
2721;DHT22;1368;49.484;11.112;2024-02-21T09:59:15;17.20;97.20
2721;DHT22;1368;49.484;11.112;2024-02-21T10:01:42;17.30;96.90
2721;DHT22;1368;49.484;11.112;2024-02-21T10:04:09;17.50;97.00
2721;DHT22;1368;49.484;11.112;2024-02-21T10:06:35;17.60;96.10
2721;DHT22;1368;49.484;11.112;2024-02-21T10:09:03;16.90;96.30
2721;DHT22;1368;49.484;11.112;2024-02-21T10:11:28;17.00;98.00
2721;DHT22;1368;49.484;11.112;2024-02-21T10:14:06;16.70;99.00
2721;DHT22;1368;49.484;11.112;2024-02-21T10:16:33;16.90;96.50
2721;DHT22;1368;49.484;11.112;2024-02-21T10:18:59;16.10;97.00
2721;DHT22;1368;49.484;11.112;2024-02-21T10:21:25;15.20;98.20
2721;DHT22;1368;49.484;11.112;2024-02-21T10:23:51;15.20;99.00
2721;DHT22;1368;49.484;11.112;2024-02-21T10:26:20;15.60;98.30
2721;DHT22;1368;49.484;11.112;2024-02-21T10:28:47;15.80;98.10
2721;DHT22;1368;49.484;11.112;2024-02-21T10:31:26;16.00;99.50
2721;DHT22;1368;49.484;11.112;2024-02-21T10:33:59;15.90;97.70
2721;DHT22;1368;49.484;11.112;2024-02-21T10:36:28;15.50;98.60
2721;DHT22;1368;49.484;11.112;2024-02-21T10:38:54;15.90;98.60
2721;DHT22;1368;49.484;11.112;2024-02-21T10:41:20;15.60;99.00
2721;DHT22;1368;49.484;11.112;2024-02-21T10:43:53;15.70;98.00
2721;DHT22;1368;49.484;11.112;2024-02-21T10:46:21;15.70;98.40
2721;DHT22;1368;49.484;11.112;2024-02-21T10:48:48;15.00;98.00
2721;DHT22;1368;49.484;11.112;2024-02-21T10:51:18;15.40;99.40
2721;DHT22;1368;49.484;11.112;2024-02-21T10:56:32;14.70;99.20
2721;DHT22;1368;49.484;11.112;2024-02-21T10:59:02;14.90;99.80
2721;DHT22;1368;49.484;11.112;2024-02-21T11:01:29;15.70;99.50
2721;DHT22;1368;49.484;11.112;2024-02-21T11:03:59;15.30;99.90
2721;DHT22;1368;49.484;11.112;2024-02-21T11:06:26;15.50;98.80
2721;DHT22;1368;49.484;11.112;2024-02-21T11:09:04;15.40;97.10
2721;DHT22;1368;49.484;11.112;2024-02-21T11:11:45;15.20;98.50
2721;DHT22;1368;49.484;11.112;2024-02-21T11:14:18;15.20;98.50
2721;DHT22;1368;49.484;11.112;2024-02-21T11:16:44;15.30;98.20
2721;DHT22;1368;49.484;11.112;2024-02-21T11:19:20;15.40;98.20
2721;DHT22;1368;49.484;11.112;2024-02-21T11:21:45;15.60;98.20
2721;DHT22;1368;49.484;11.112;2024-02-21T11:24:13;15.80;98.90
2721;DHT22;1368;49.484;11.112;2024-02-21T11:26:39;15.40;97.90
2721;DHT22;1368;49.484;11.112;2024-02-21T11:29:07;15.20;98.30
2721;DHT22;1368;49.484;11.112;2024-02-21T11:31:42;15.10;98.70
2721;DHT22;1368;49.484;11.112;2024-02-21T11:34:11;15.00;98.00
2721;DHT22;1368;49.484;11.112;2024-02-21T11:36:51;15.10;97.80
2721;DHT22;1368;49.484;11.112;2024-02-21T11:39:24;15.20;97.90
2721;DHT22;1368;49.484;11.112;2024-02-21T11:42:09;15.30;97.80
2721;DHT22;1368;49.484;11.112;2024-02-21T11:44:36;14.80;98.30
2721;DHT22;1368;49.484;11.112;2024-02-21T11:47:08;14.70;99.10
2721;DHT22;1368;49.484;11.112;2024-02-21T11:49:52;14.80;98.80
2721;DHT22;1368;49.484;11.112;2024-02-21T11:52:25;14.80;99.50
2721;DHT22;1368;49.484;11.112;2024-02-21T11:54:54;15.10;98.20
2721;DHT22;1368;49.484;11.112;2024-02-21T11:57:22;15.10;97.70
2721;DHT22;1368;49.484;11.112;2024-02-21T11:59:47;15.00;97.00
2721;DHT22;1368;49.484;11.112;2024-02-21T12:02:14;15.00;98.80
2721;DHT22;1368;49.484;11.112;2024-02-21T12:04:41;15.10;98.50
2721;DHT22;1368;49.484;11.112;2024-02-21T12:07:07;15.20;99.00
2721;DHT22;1368;49.484;11.112;2024-02-21T12:09:34;15.90;98.30
2721;DHT22;1368;49.484;11.112;2024-02-21T12:12:01;15.50;97.30
2721;DHT22;1368;49.484;11.112;2024-02-21T12:14:29;15.60;96.70
2721;DHT22;1368;49.484;11.112;2024-02-21T12:16:55;15.30;96.70
2721;DHT22;1368;49.484;11.112;2024-02-21T12:19:21;15.40;97.60
2721;DHT22;1368;49.484;11.112;2024-02-21T12:21:48;15.70;97.40
2721;DHT22;1368;49.484;11.112;2024-02-21T12:24:16;15.60;96.60
2721;DHT22;1368;49.484;11.112;2024-02-21T12:26:42;15.50;96.30
2721;DHT22;1368;49.484;11.112;2024-02-21T12:29:08;15.80;97.30
2721;DHT22;1368;49.484;11.112;2024-02-21T12:31:39;15.80;96.80
2721;DHT22;1368;49.484;11.112;2024-02-21T12:34:05;15.80;96.40
2721;DHT22;1368;49.484;11.112;2024-02-21T12:36:35;15.50;95.70
2721;DHT22;1368;49.484;11.112;2024-02-21T12:39:01;15.40;96.80
2721;DHT22;1368;49.484;11.112;2024-02-21T12:41:28;15.60;96.20
2721;DHT22;1368;49.484;11.112;2024-02-21T12:43:55;15.90;96.20
2721;DHT22;1368;49.484;11.112;2024-02-21T12:46:22;15.80;95.80
2721;DHT22;1368;49.484;11.112;2024-02-21T12:48:47;15.80;96.20
2721;DHT22;1368;49.484;11.112;2024-02-21T12:51:13;15.90;95.60
2721;DHT22;1368;49.484;11.112;2024-02-21T12:53:39;15.50;96.60
2721;DHT22;1368;49.484;11.112;2024-02-21T12:56:05;15.80;96.40
2721;DHT22;1368;49.484;11.112;2024-02-21T12:58:32;15.10;95.90
2721;DHT22;1368;49.484;11.112;2024-02-21T13:00:58;14.90;96.50
2721;DHT22;1368;49.484;11.112;2024-02-21T13:03:24;15.10;96.90
2721;DHT22;1368;49.484;11.112;2024-02-21T13:05:49;15.30;97.10
2721;DHT22;1368;49.484;11.112;2024-02-21T13:08:15;15.40;96.20
2721;DHT22;1368;49.484;11.112;2024-02-21T13:10:41;15.60;95.50
2721;DHT22;1368;49.484;11.112;2024-02-21T13:13:06;15.90;94.80
2721;DHT22;1368;49.484;11.112;2024-02-21T13:15:32;15.20;95.30
2721;DHT22;1368;49.484;11.112;2024-02-21T13:17:57;15.10;95.10
2721;DHT22;1368;49.484;11.112;2024-02-21T13:20:27;15.20;95.00
2721;DHT22;1368;49.484;11.112;2024-02-21T13:22:53;15.00;95.10
2721;DHT22;1368;49.484;11.112;2024-02-21T13:25:19;15.30;94.60
2721;DHT22;1368;49.484;11.112;2024-02-21T13:27:47;15.70;94.80
2721;DHT22;1368;49.484;11.112;2024-02-21T13:30:13;15.60;94.90
2721;DHT22;1368;49.484;11.112;2024-02-21T13:32:44;15.80;95.00
2721;DHT22;1368;49.484;11.112;2024-02-21T13:35:11;15.70;93.30
2721;DHT22;1368;49.484;11.112;2024-02-21T13:37:38;15.80;94.50
2721;DHT22;1368;49.484;11.112;2024-02-21T13:40:04;16.10;94.50
2721;DHT22;1368;49.484;11.112;2024-02-21T13:42:30;16.30;93.80
2721;DHT22;1368;49.484;11.112;2024-02-21T13:44:55;16.20;93.50
2721;DHT22;1368;49.484;11.112;2024-02-21T13:47:21;16.40;93.70
2721;DHT22;1368;49.484;11.112;2024-02-21T13:49:47;16.60;92.70
2721;DHT22;1368;49.484;11.112;2024-02-21T13:52:13;16.10;93.40
2721;DHT22;1368;49.484;11.112;2024-02-21T13:54:38;16.40;92.80
2721;DHT22;1368;49.484;11.112;2024-02-21T13:57:04;16.00;92.20
2721;DHT22;1368;49.484;11.112;2024-02-21T13:59:30;16.10;92.60
2721;DHT22;1368;49.484;11.112;2024-02-21T14:01:55;16.30;91.60
2721;DHT22;1368;49.484;11.112;2024-02-21T14:04:21;16.00;91.70
2721;DHT22;1368;49.484;11.112;2024-02-21T14:06:47;16.00;91.50
2721;DHT22;1368;49.484;11.112;2024-02-21T14:09:13;15.90;91.30
2721;DHT22;1368;49.484;11.112;2024-02-21T14:11:39;16.00;90.70
2721;DHT22;1368;49.484;11.112;2024-02-21T14:14:06;16.00;90.90
2721;DHT22;1368;49.484;11.112;2024-02-21T14:16:32;16.20;90.90
2721;DHT22;1368;49.484;11.112;2024-02-21T14:18:58;16.00;90.90
2721;DHT22;1368;49.484;11.112;2024-02-21T14:21:23;16.20;90.80
2721;DHT22;1368;49.484;11.112;2024-02-21T14:23:49;16.30;92.20
2721;DHT22;1368;49.484;11.112;2024-02-21T14:26:15;16.20;90.80
2721;DHT22;1368;49.484;11.112;2024-02-21T14:28:41;16.00;91.80
2721;DHT22;1368;49.484;11.112;2024-02-21T14:31:07;16.10;92.70
2721;DHT22;1368;49.484;11.112;2024-02-21T14:33:35;15.90;91.50
2721;DHT22;1368;49.484;11.112;2024-02-21T14:36:01;15.90;90.80
2721;DHT22;1368;49.484;11.112;2024-02-21T14:38:27;16.00;91.10
2721;DHT22;1368;49.484;11.112;2024-02-21T14:40:53;15.80;89.20
2721;DHT22;1368;49.484;11.112;2024-02-21T14:43:19;15.90;89.10
2721;DHT22;1368;49.484;11.112;2024-02-21T14:45:47;15.90;90.10
2721;DHT22;1368;49.484;11.112;2024-02-21T14:48:15;16.30;89.60
2721;DHT22;1368;49.484;11.112;2024-02-21T14:50:41;16.00;88.20
2721;DHT22;1368;49.484;11.112;2024-02-21T14:53:08;15.80;88.80
2721;DHT22;1368;49.484;11.112;2024-02-21T14:55:36;16.00;89.90
2721;DHT22;1368;49.484;11.112;2024-02-21T14:58:05;15.90;88.20
2721;DHT22;1368;49.484;11.112;2024-02-21T15:00:32;15.60;88.30
2721;DHT22;1368;49.484;11.112;2024-02-21T15:02:58;15.50;90.10
2721;DHT22;1368;49.484;11.112;2024-02-21T15:05:24;15.90;90.90
2721;DHT22;1368;49.484;11.112;2024-02-21T15:07:50;15.80;90.00
2721;DHT22;1368;49.484;11.112;2024-02-21T15:10:16;15.80;90.70
2721;DHT22;1368;49.484;11.112;2024-02-21T15:12:47;15.70;90.50
2721;DHT22;1368;49.484;11.112;2024-02-21T15:15:13;15.20;88.60
2721;DHT22;1368;49.484;11.112;2024-02-21T15:17:39;15.00;90.00
2721;DHT22;1368;49.484;11.112;2024-02-21T15:20:05;15.00;88.90
2721;DHT22;1368;49.484;11.112;2024-02-21T15:22:35;15.10;88.80
2721;DHT22;1368;49.484;11.112;2024-02-21T15:25:03;15.50;89.50
2721;DHT22;1368;49.484;11.112;2024-02-21T15:27:32;15.10;89.80
2721;DHT22;1368;49.484;11.112;2024-02-21T15:29:57;14.90;88.50
2721;DHT22;1368;49.484;11.112;2024-02-21T15:32:23;15.00;88.60
2721;DHT22;1368;49.484;11.112;2024-02-21T15:34:49;14.80;87.30
2721;DHT22;1368;49.484;11.112;2024-02-21T15:37:15;14.70;87.70
2721;DHT22;1368;49.484;11.112;2024-02-21T15:39:41;14.70;88.00
2721;DHT22;1368;49.484;11.112;2024-02-21T15:42:07;14.60;88.40
2721;DHT22;1368;49.484;11.112;2024-02-21T15:44:32;14.40;90.60
2721;DHT22;1368;49.484;11.112;2024-02-21T15:46:58;14.30;91.00
2721;DHT22;1368;49.484;11.112;2024-02-21T15:49:24;14.10;91.30
2721;DHT22;1368;49.484;11.112;2024-02-21T15:51:50;14.00;92.10
2721;DHT22;1368;49.484;11.112;2024-02-21T15:54:16;13.70;92.80